Vernicos Oceanos — SVA7379 — position and weather

sailwx.info

Track history (hours):
 
Tides and Currents Weather Stations Pressure Air Temp Water Temp Dewpoint Dewpoint Depression Visibility Wind Speed Wind Dir Waves Ship Positions

Vernicos Oceanos

Last reported at 2017-Sep-26 16:00 UTC. Time now 2017-Sep-26 16:31 UTC.
Position N 37°57' E 023°35'.

; draft 4 m.

MMSI: 239998500.

Date/timePositionNaut miles runAvg speedWind from/ knotsBaromVisibWave heightAir tempDewpointWater temp
2017-Sep-26 16:00N 37°57' E 023°35'2 3.5
2017-Sep-26 15:30N 37°58' E 023°33'2 4.1
2017-Sep-26 15:00N 37°57' E 023°36'1 1.1
2017-Sep-26 14:30N 37°57' E 023°36'0 0.0
2017-Sep-26 14:00N 37°57' E 023°36'0 0.0
2017-Sep-26 13:30N 37°57' E 023°36'0 0.0
2017-Sep-26 13:00N 37°57' E 023°36'0 0.0
2017-Sep-26 12:30N 37°57' E 023°36'0 0.0
2017-Sep-26 12:00N 37°57' E 023°36'4 7.3
2017-Sep-26 11:30N 37°60' E 023°33'5 9.2
2017-Sep-26 11:00N 38°00' E 023°27'3 6.6
2017-Sep-26 10:30N 37°58' E 023°24'1 2.2
2017-Sep-26 10:00N 37°58' E 023°23'1 1.8
2017-Sep-26 09:30N 37°57' E 023°23'1 1.4
2017-Sep-26 09:00N 37°57' E 023°24'2 3.2
2017-Sep-26 08:31N 37°59' E 023°25'5 9.9
2017-Sep-26 08:00N 38°01' E 023°30'1 2.2
2017-Sep-26 07:30N 38°02' E 023°32'1 2.7
2017-Sep-26 07:00N 38°02' E 023°30'0 0.4
2017-Sep-26 06:30N 38°02' E 023°30'1 2.5
2017-Sep-26 06:00N 38°01' E 023°31'4 7.6
2017-Sep-26 05:31N 37°57' E 023°34'1 2.7
2017-Sep-26 05:00N 37°57' E 023°35'0 0.4
2017-Sep-26 04:30N 37°57' E 023°35'0 0.3
2017-Sep-26 04:00N 37°57' E 023°35'0 0.2
2017-Sep-26 03:30N 37°57' E 023°35'1 1.4
2017-Sep-26 03:00N 37°57' E 023°36'0 0.0
2017-Sep-25 19:51N 37°57' E 023°36'1 3.7
2017-Sep-25 19:31N 37°57' E 023°35'0 0.7
2017-Sep-25 19:01N 37°57' E 023°35'1 2.1
2017-Sep-25 18:31N 37°58' E 023°36'0 0.0
2017-Sep-25 18:01N 37°58' E 023°36'0 0.5
2017-Sep-25 17:30N 37°57' E 023°37'3 6.9
2017-Sep-25 17:01N 37°59' E 023°33'3 6.9
2017-Sep-25 16:30N 38°02' E 023°31'0 0.1
2017-Sep-25 16:00N 38°02' E 023°30'1 1.1
2017-Sep-25 15:30N 38°01' E 023°31'0 0.8
2017-Sep-25 15:00N 38°01' E 023°31'0 0.2
2017-Sep-25 14:31N 38°01' E 023°31'0 0.8
2017-Sep-25 14:00N 38°01' E 023°31'0 0.2
2017-Sep-25 13:31N 38°01' E 023°31'1 2.5
2017-Sep-25 13:01N 38°02' E 023°32'0 0.0
2017-Sep-25 12:30N 38°02' E 023°32'0 0.0
2017-Sep-25 12:01N 38°02' E 023°32'0 0.0
2017-Sep-25 11:31N 38°02' E 023°32'0 0.0
2017-Sep-25 11:00N 38°02' E 023°32'0 0.0
2017-Sep-25 10:31N 38°02' E 023°32'0 0.0
2017-Sep-25 10:01N 38°02' E 023°32'0 0.0
2017-Sep-25 09:30N 38°02' E 023°32'0 0.0
2017-Sep-25 09:01N 38°02' E 023°32'0 0.0
2017-Sep-25 08:31N 38°02' E 023°32'0 0.0
2017-Sep-25 08:00N 38°02' E 023°32'3 5.2
2017-Sep-25 07:31N 38°01' E 023°36'1 1.2
2017-Sep-25 07:00N 38°01' E 023°35'2 3.2
2017-Sep-25 06:31N 38°00' E 023°33'3 5.4
2017-Sep-25 06:00N 37°58' E 023°33'2 3.2
2017-Sep-25 05:31N 37°57' E 023°35'1 1.8
2017-Sep-25 05:00N 37°56' E 023°35'0 0.4
2017-Sep-25 04:31N 37°56' E 023°35'2 3.4
2017-Sep-25 04:01N 37°57' E 023°37'0 0.0
2017-Sep-25 03:31N 37°57' E 023°37'0 0.0
2017-Sep-25 03:01N 37°57' E 023°37'  
2017-Sep-22 02:00N 37°57' E 023°37'0 0.0
2017-Sep-22 01:30N 37°57' E 023°37'0 0.0
2017-Sep-22 01:00N 37°57' E 023°37'0 0.0
2017-Sep-22 00:30N 37°57' E 023°37'0 0.0
2017-Sep-22 00:00N 37°57' E 023°37'0 0.0
2017-Sep-21 23:30N 37°57' E 023°37'0 0.0
2017-Sep-21 23:00N 37°57' E 023°37'0 0.0
2017-Sep-21 22:30N 37°57' E 023°37'0 0.1
2017-Sep-21 22:00N 37°57' E 023°37'0 0.0
2017-Sep-21 21:30N 37°57' E 023°37'0 0.0
2017-Sep-21 21:00N 37°57' E 023°37'0 0.7
2017-Sep-21 20:30N 37°57' E 023°36'1 1.2
2017-Sep-21 20:01N 37°57' E 023°36'1 1.9
2017-Sep-21 19:30N 37°57' E 023°37'0 0.9
2017-Sep-21 19:00N 37°57' E 023°36'1 2.8
2017-Sep-21 18:30N 37°56' E 023°35'2 3.5
2017-Sep-21 18:00N 37°57' E 023°36'0 0.3
2017-Sep-21 17:30N 37°57' E 023°37'0 0.0
2017-Sep-21 17:00N 37°57' E 023°37'0 0.7
2017-Sep-21 16:30N 37°57' E 023°36'4 8.0
2017-Sep-21 16:00N 38°00' E 023°33'3 5.4
2017-Sep-21 15:30N 38°02' E 023°30'1 1.4
2017-Sep-21 15:00N 38°01' E 023°31'2 4.1
2017-Sep-21 14:31N 38°00' E 023°33'5 9.1
2017-Sep-21 14:00N 37°57' E 023°36'2 3.1
2017-Sep-21 13:30N 37°56' E 023°38'2 4.7
2017-Sep-21 13:00N 37°57' E 023°35'0 0.9
2017-Sep-21 12:30N 37°57' E 023°35'0 0.3
2017-Sep-21 12:00N 37°57' E 023°35'1 2.3
2017-Sep-21 11:30N 37°57' E 023°37'0 0.0
2017-Sep-21 11:00N 37°57' E 023°37'3 5.2
2017-Sep-21 10:30N 37°57' E 023°33'5 9.6
2017-Sep-21 10:00N 38°01' E 023°29'4 8.9
2017-Sep-21 09:30N 37°58' E 023°25'0 0.7
2017-Sep-21 09:00N 37°58' E 023°24'0 0.3
2017-Sep-21 08:30N 37°57' E 023°24'0 0.9
2017-Sep-21 08:00N 37°57' E 023°24'1 1.2
2017-Sep-21 07:30N 37°57' E 023°24'1 2.0
2017-Sep-21 07:00N 37°56' E 023°23'1 2.9
2017-Sep-21 06:30N 37°54' E 023°23'5 9.7
2017-Sep-21 06:00N 37°52' E 023°28'611.1
2017-Sep-21 05:30N 37°55' E 023°34'3 5.1
2017-Sep-21 05:00N 37°57' E 023°36'0 0.0
2017-Sep-21 04:30N 37°57' E 023°36'1 1.4
2017-Sep-21 04:00N 37°57' E 023°37'0 0.0
2017-Sep-21 03:30N 37°57' E 023°37'0 0.0
2017-Sep-21 03:00N 37°57' E 023°37'0 0.0
2017-Sep-19 10:51N 37°57' E 023°37'0 0.0
2017-Sep-19 10:31N 37°57' E 023°37'0 0.0
2017-Sep-19 10:00N 37°57' E 023°37'0 0.0
2017-Sep-19 09:30N 37°57' E 023°37'0 0.0
2017-Sep-19 09:01N 37°57' E 023°37'0 0.0
2017-Sep-19 08:31N 37°57' E 023°37'0 0.0
2017-Sep-19 08:01N 37°57' E 023°37'0 0.0
2017-Sep-19 07:30N 37°57' E 023°37'0 0.0
2017-Sep-19 07:01N 37°57' E 023°37'0 0.0
2017-Sep-19 06:30N 37°57' E 023°37'0 0.0
2017-Sep-19 06:00N 37°57' E 023°37'0 0.0
2017-Sep-19 05:30N 37°57' E 023°37'1 2.1
2017-Sep-19 05:00N 37°57' E 023°35'1 2.2
2017-Sep-19 04:30N 37°56' E 023°36'1 2.0
2017-Sep-19 04:01N 37°57' E 023°35'0 0.4
2017-Sep-19 03:31N 37°57' E 023°35'1 2.1
2017-Sep-19 03:01N 37°57' E 023°37'0 0.0
2017-Sep-18 12:09N 37°57' E 023°37'1 5.1
2017-Sep-18 12:00N 37°57' E 023°36'1 1.6
2017-Sep-18 11:31N 37°57' E 023°35'1 2.0
2017-Sep-18 11:00N 37°56' E 023°35'2 4.2
2017-Sep-18 10:30N 37°57' E 023°37'0 0.0
2017-Sep-18 10:00N 37°57' E 023°37'0 0.0
2017-Sep-18 09:30N 37°57' E 023°37'0 0.0
2017-Sep-18 09:00N 37°57' E 023°37'0 0.0
2017-Sep-18 08:30N 37°57' E 023°37'0 0.0
2017-Sep-18 08:00N 37°57' E 023°37'0 0.0
2017-Sep-18 07:30N 37°57' E 023°37'0 0.0
2017-Sep-18 07:00N 37°57' E 023°37'0 0.0
2017-Sep-18 06:30N 37°57' E 023°37'0 0.0
2017-Sep-18 06:00N 37°57' E 023°37'0 0.0
2017-Sep-18 05:30N 37°57' E 023°37'0 0.0
2017-Sep-18 05:00N 37°57' E 023°37'1 2.3
2017-Sep-18 04:30N 37°57' E 023°35'0 0.9
2017-Sep-18 04:00N 37°57' E 023°36'1 1.7
2017-Sep-18 03:30N 37°57' E 023°37'0 0.0
2017-Sep-18 03:00N 37°57' E 023°37'0 0.0
2017-Sep-18 02:30N 37°57' E 023°37'0 0.0
2017-Sep-18 02:00N 37°57' E 023°37'0 0.0
2017-Sep-18 01:30N 37°57' E 023°37'0 0.0
2017-Sep-18 01:00N 37°57' E 023°37'0 0.0
2017-Sep-18 00:30N 37°57' E 023°37'0 0.0
2017-Sep-18 00:00N 37°57' E 023°37'0 0.0
2017-Sep-17 23:30N 37°57' E 023°37'0 0.0
2017-Sep-17 23:00N 37°57' E 023°37'0 0.0
2017-Sep-17 22:30N 37°57' E 023°37'0 0.0
2017-Sep-17 22:00N 37°57' E 023°37'0 0.0
2017-Sep-17 21:30N 37°57' E 023°37'0 0.0
2017-Sep-17 21:00N 37°57' E 023°37'1 2.9
2017-Sep-17 20:30N 37°57' E 023°35'1 1.6
2017-Sep-17 20:00N 37°57' E 023°36'0 0.8
2017-Sep-17 19:30N 37°57' E 023°36'0 0.7
2017-Sep-17 19:00N 37°57' E 023°37'0 0.0
2017-Sep-17 18:30N 37°57' E 023°37'0 0.0
2017-Sep-17 18:00N 37°57' E 023°37'0 0.0
2017-Sep-17 17:30N 37°57' E 023°37'0 0.0
2017-Sep-17 17:00N 37°57' E 023°37'0 0.0
2017-Sep-17 16:30N 37°57' E 023°37'1 2.7
2017-Sep-17 16:00N 37°57' E 023°35'1 1.4
2017-Sep-17 15:30N 37°57' E 023°36'1 1.3
2017-Sep-17 15:00N 37°57' E 023°37'0 0.0
2017-Sep-17 14:30N 37°57' E 023°37'0 0.0
2017-Sep-17 14:00N 37°57' E 023°37'0 0.0
2017-Sep-17 13:30N 37°57' E 023°37'0 0.1
2017-Sep-17 13:00N 37°57' E 023°37'1 1.6
2017-Sep-17 12:30N 37°57' E 023°36'1 1.6
2017-Sep-17 12:00N 37°57' E 023°37'0 0.0
2017-Sep-17 11:30N 37°57' E 023°37'0 0.0
2017-Sep-17 11:00N 37°57' E 023°37'0 0.0
2017-Sep-17 10:30N 37°57' E 023°37'0 0.0
2017-Sep-17 10:00N 37°57' E 023°37'0 0.0
2017-Sep-17 09:30N 37°57' E 023°37'0 0.0
2017-Sep-17 09:00N 37°57' E 023°37'0 0.0
2017-Sep-17 08:30N 37°57' E 023°37'0 0.0
2017-Sep-17 08:00N 37°57' E 023°37'0 0.0
2017-Sep-17 07:30N 37°57' E 023°37'0 0.0
2017-Sep-17 07:00N 37°57' E 023°37'0 0.0
2017-Sep-17 06:30N 37°57' E 023°37'0 0.0
2017-Sep-17 06:00N 37°57' E 023°37'0 0.0
2017-Sep-17 05:30N 37°57' E 023°37'1 2.9
2017-Sep-17 05:00N 37°57' E 023°35'0 0.9
2017-Sep-17 04:31N 37°57' E 023°35'1 1.7
2017-Sep-17 04:00N 37°57' E 023°36'1 1.5
2017-Sep-17 03:30N 37°57' E 023°37'0 0.2
2017-Sep-17 03:00N 37°57' E 023°37'0 0.0
2017-Sep-17 02:30N 37°57' E 023°37'0 0.0
2017-Sep-17 02:00N 37°57' E 023°37'0 0.0
2017-Sep-17 01:30N 37°57' E 023°37'0 0.0
2017-Sep-17 01:00N 37°57' E 023°37'0 0.0
2017-Sep-17 00:30N 37°57' E 023°37'0 0.1
2017-Sep-17 00:00N 37°57' E 023°36'1 2.6
2017-Sep-16 23:30N 37°57' E 023°35'0 0.4
2017-Sep-16 23:00N 37°57' E 023°35'0 0.0
2017-Sep-16 22:30N 37°57' E 023°35'0 0.0
2017-Sep-16 22:00N 37°57' E 023°35'0 0.0
2017-Sep-16 21:30N 37°57' E 023°35'0 0.4
2017-Sep-16 21:00N 37°57' E 023°35'2 3.5
2017-Sep-16 20:30N 37°56' E 023°35'1 3.0
2017-Sep-16 20:00N 37°57' E 023°35'0 0.9
2017-Sep-16 19:30N 37°57' E 023°36'1 1.3
2017-Sep-16 19:00N 37°57' E 023°37'0 0.9
2017-Sep-16 18:30N 37°57' E 023°36'0 1.0
2017-Sep-16 18:00N 37°57' E 023°37'0 0.0
2017-Sep-16 17:30N 37°57' E 023°37'0 0.0
2017-Sep-16 17:00N 37°57' E 023°37'0 0.0
2017-Sep-16 16:30N 37°57' E 023°37'0 0.0
2017-Sep-16 16:00N 37°57' E 023°37'  
Track history (hours):
 
Tides and Currents Weather Stations Pressure Air Temp Water Temp Dewpoint Dewpoint Depression Visibility Wind Speed Wind Dir Waves Ship Positions

Vernicos Oceanos

Last reported at 2017-Sep-26 16:00 UTC. Time now 2017-Sep-26 16:31 UTC.
Position N 37°57' E 023°35'.

; draft 4 m.

MMSI: 239998500.

Date/timePositionNaut miles runAvg speedWind from/ knotsBaromVisibWave heightAir tempDewpointWater temp
2017-Sep-26 16:00N 37°57' E 023°35'2 3.5
2017-Sep-26 15:30N 37°58' E 023°33'2 4.1
2017-Sep-26 15:00N 37°57' E 023°36'1 1.1
2017-Sep-26 14:30N 37°57' E 023°36'0 0.0
2017-Sep-26 14:00N 37°57' E 023°36'0 0.0
2017-Sep-26 13:30N 37°57' E 023°36'0 0.0
2017-Sep-26 13:00N 37°57' E 023°36'0 0.0
2017-Sep-26 12:30N 37°57' E 023°36'0 0.0
2017-Sep-26 12:00N 37°57' E 023°36'4 7.3
2017-Sep-26 11:30N 37°60' E 023°33'5 9.2
2017-Sep-26 11:00N 38°00' E 023°27'3 6.6
2017-Sep-26 10:30N 37°58' E 023°24'1 2.2
2017-Sep-26 10:00N 37°58' E 023°23'1 1.8
2017-Sep-26 09:30N 37°57' E 023°23'1 1.4
2017-Sep-26 09:00N 37°57' E 023°24'2 3.2
2017-Sep-26 08:31N 37°59' E 023°25'5 9.9
2017-Sep-26 08:00N 38°01' E 023°30'1 2.2
2017-Sep-26 07:30N 38°02' E 023°32'1 2.7
2017-Sep-26 07:00N 38°02' E 023°30'0 0.4
2017-Sep-26 06:30N 38°02' E 023°30'1 2.5
2017-Sep-26 06:00N 38°01' E 023°31'4 7.6
2017-Sep-26 05:31N 37°57' E 023°34'1 2.7
2017-Sep-26 05:00N 37°57' E 023°35'0 0.4
2017-Sep-26 04:30N 37°57' E 023°35'0 0.3
2017-Sep-26 04:00N 37°57' E 023°35'0 0.2
2017-Sep-26 03:30N 37°57' E 023°35'1 1.4
2017-Sep-26 03:00N 37°57' E 023°36'0 0.0
2017-Sep-25 19:51N 37°57' E 023°36'1 3.7
2017-Sep-25 19:31N 37°57' E 023°35'0 0.7
2017-Sep-25 19:01N 37°57' E 023°35'1 2.1
2017-Sep-25 18:31N 37°58' E 023°36'0 0.0
2017-Sep-25 18:01N 37°58' E 023°36'0 0.5
2017-Sep-25 17:30N 37°57' E 023°37'3 6.9
2017-Sep-25 17:01N 37°59' E 023°33'3 6.9
2017-Sep-25 16:30N 38°02' E 023°31'0 0.1
2017-Sep-25 16:00N 38°02' E 023°30'1 1.1
2017-Sep-25 15:30N 38°01' E 023°31'0 0.8
2017-Sep-25 15:00N 38°01' E 023°31'0 0.2
2017-Sep-25 14:31N 38°01' E 023°31'0 0.8
2017-Sep-25 14:00N 38°01' E 023°31'0 0.2
2017-Sep-25 13:31N 38°01' E 023°31'1 2.5
2017-Sep-25 13:01N 38°02' E 023°32'0 0.0
2017-Sep-25 12:30N 38°02' E 023°32'0 0.0
2017-Sep-25 12:01N 38°02' E 023°32'0 0.0
2017-Sep-25 11:31N 38°02' E 023°32'0 0.0
2017-Sep-25 11:00N 38°02' E 023°32'0 0.0
2017-Sep-25 10:31N 38°02' E 023°32'0 0.0
2017-Sep-25 10:01N 38°02' E 023°32'0 0.0
2017-Sep-25 09:30N 38°02' E 023°32'0 0.0
2017-Sep-25 09:01N 38°02' E 023°32'0 0.0
2017-Sep-25 08:31N 38°02' E 023°32'0 0.0
2017-Sep-25 08:00N 38°02' E 023°32'3 5.2
2017-Sep-25 07:31N 38°01' E 023°36'1 1.2
2017-Sep-25 07:00N 38°01' E 023°35'2 3.2
2017-Sep-25 06:31N 38°00' E 023°33'3 5.4
2017-Sep-25 06:00N 37°58' E 023°33'2 3.2
2017-Sep-25 05:31N 37°57' E 023°35'1 1.8
2017-Sep-25 05:00N 37°56' E 023°35'0 0.4
2017-Sep-25 04:31N 37°56' E 023°35'2 3.4
2017-Sep-25 04:01N 37°57' E 023°37'0 0.0
2017-Sep-25 03:31N 37°57' E 023°37'0 0.0
2017-Sep-25 03:01N 37°57' E 023°37'  
2017-Sep-22 02:00N 37°57' E 023°37'0 0.0
2017-Sep-22 01:30N 37°57' E 023°37'0 0.0
2017-Sep-22 01:00N 37°57' E 023°37'0 0.0
2017-Sep-22 00:30N 37°57' E 023°37'0 0.0
2017-Sep-22 00:00N 37°57' E 023°37'0 0.0
2017-Sep-21 23:30N 37°57' E 023°37'0 0.0
2017-Sep-21 23:00N 37°57' E 023°37'0 0.0
2017-Sep-21 22:30N 37°57' E 023°37'0 0.1
2017-Sep-21 22:00N 37°57' E 023°37'0 0.0
2017-Sep-21 21:30N 37°57' E 023°37'0 0.0
2017-Sep-21 21:00N 37°57' E 023°37'0 0.7
2017-Sep-21 20:30N 37°57' E 023°36'1 1.2
2017-Sep-21 20:01N 37°57' E 023°36'1 1.9
2017-Sep-21 19:30N 37°57' E 023°37'0 0.9
2017-Sep-21 19:00N 37°57' E 023°36'1 2.8
2017-Sep-21 18:30N 37°56' E 023°35'2 3.5
2017-Sep-21 18:00N 37°57' E 023°36'0 0.3
2017-Sep-21 17:30N 37°57' E 023°37'0 0.0
2017-Sep-21 17:00N 37°57' E 023°37'0 0.7
2017-Sep-21 16:30N 37°57' E 023°36'4 8.0
2017-Sep-21 16:00N 38°00' E 023°33'3 5.4
2017-Sep-21 15:30N 38°02' E 023°30'1 1.4
2017-Sep-21 15:00N 38°01' E 023°31'2 4.1
2017-Sep-21 14:31N 38°00' E 023°33'5 9.1
2017-Sep-21 14:00N 37°57' E 023°36'2 3.1
2017-Sep-21 13:30N 37°56' E 023°38'2 4.7
2017-Sep-21 13:00N 37°57' E 023°35'0 0.9
2017-Sep-21 12:30N 37°57' E 023°35'0 0.3
2017-Sep-21 12:00N 37°57' E 023°35'1 2.3
2017-Sep-21 11:30N 37°57' E 023°37'0 0.0
2017-Sep-21 11:00N 37°57' E 023°37'3 5.2
2017-Sep-21 10:30N 37°57' E 023°33'5 9.6
2017-Sep-21 10:00N 38°01' E 023°29'4 8.9
2017-Sep-21 09:30N 37°58' E 023°25'0 0.7
2017-Sep-21 09:00N 37°58' E 023°24'0 0.3
2017-Sep-21 08:30N 37°57' E 023°24'0 0.9
2017-Sep-21 08:00N 37°57' E 023°24'1 1.2
2017-Sep-21 07:30N 37°57' E 023°24'1 2.0
2017-Sep-21 07:00N 37°56' E 023°23'1 2.9
2017-Sep-21 06:30N 37°54' E 023°23'5 9.7
2017-Sep-21 06:00N 37°52' E 023°28'611.1
2017-Sep-21 05:30N 37°55' E 023°34'3 5.1
2017-Sep-21 05:00N 37°57' E 023°36'0 0.0
2017-Sep-21 04:30N 37°57' E 023°36'1 1.4
2017-Sep-21 04:00N 37°57' E 023°37'0 0.0
2017-Sep-21 03:30N 37°57' E 023°37'0 0.0
2017-Sep-21 03:00N 37°57' E 023°37'0 0.0
2017-Sep-19 10:51N 37°57' E 023°37'0 0.0
2017-Sep-19 10:31N 37°57' E 023°37'0 0.0
2017-Sep-19 10:00N 37°57' E 023°37'0 0.0
2017-Sep-19 09:30N 37°57' E 023°37'0 0.0
2017-Sep-19 09:01N 37°57' E 023°37'0 0.0
2017-Sep-19 08:31N 37°57' E 023°37'0 0.0
2017-Sep-19 08:01N 37°57' E 023°37'0 0.0
2017-Sep-19 07:30N 37°57' E 023°37'0 0.0
2017-Sep-19 07:01N 37°57' E 023°37'0 0.0
2017-Sep-19 06:30N 37°57' E 023°37'0 0.0
2017-Sep-19 06:00N 37°57' E 023°37'0 0.0
2017-Sep-19 05:30N 37°57' E 023°37'1 2.1
2017-Sep-19 05:00N 37°57' E 023°35'1 2.2
2017-Sep-19 04:30N 37°56' E 023°36'1 2.0
2017-Sep-19 04:01N 37°57' E 023°35'0 0.4
2017-Sep-19 03:31N 37°57' E 023°35'1 2.1
2017-Sep-19 03:01N 37°57' E 023°37'0 0.0
2017-Sep-18 12:09N 37°57' E 023°37'1 5.1
2017-Sep-18 12:00N 37°57' E 023°36'1 1.6
2017-Sep-18 11:31N 37°57' E 023°35'1 2.0
2017-Sep-18 11:00N 37°56' E 023°35'2 4.2
2017-Sep-18 10:30N 37°57' E 023°37'0 0.0
2017-Sep-18 10:00N 37°57' E 023°37'0 0.0
2017-Sep-18 09:30N 37°57' E 023°37'0 0.0
2017-Sep-18 09:00N 37°57' E 023°37'0 0.0
2017-Sep-18 08:30N 37°57' E 023°37'0 0.0
2017-Sep-18 08:00N 37°57' E 023°37'0 0.0
2017-Sep-18 07:30N 37°57' E 023°37'0 0.0
2017-Sep-18 07:00N 37°57' E 023°37'0 0.0
2017-Sep-18 06:30N 37°57' E 023°37'0 0.0
2017-Sep-18 06:00N 37°57' E 023°37'0 0.0
2017-Sep-18 05:30N 37°57' E 023°37'0 0.0
2017-Sep-18 05:00N 37°57' E 023°37'1 2.3
2017-Sep-18 04:30N 37°57' E 023°35'0 0.9
2017-Sep-18 04:00N 37°57' E 023°36'1 1.7
2017-Sep-18 03:30N 37°57' E 023°37'0 0.0
2017-Sep-18 03:00N 37°57' E 023°37'0 0.0
2017-Sep-18 02:30N 37°57' E 023°37'0 0.0
2017-Sep-18 02:00N 37°57' E 023°37'0 0.0
2017-Sep-18 01:30N 37°57' E 023°37'0 0.0
2017-Sep-18 01:00N 37°57' E 023°37'0 0.0
2017-Sep-18 00:30N 37°57' E 023°37'0 0.0
2017-Sep-18 00:00N 37°57' E 023°37'0 0.0
2017-Sep-17 23:30N 37°57' E 023°37'0 0.0
2017-Sep-17 23:00N 37°57' E 023°37'0 0.0
2017-Sep-17 22:30N 37°57' E 023°37'0 0.0
2017-Sep-17 22:00N 37°57' E 023°37'0 0.0
2017-Sep-17 21:30N 37°57' E 023°37'0 0.0
2017-Sep-17 21:00N 37°57' E 023°37'1 2.9
2017-Sep-17 20:30N 37°57' E 023°35'1 1.6
2017-Sep-17 20:00N 37°57' E 023°36'0 0.8
2017-Sep-17 19:30N 37°57' E 023°36'0 0.7
2017-Sep-17 19:00N 37°57' E 023°37'0 0.0
2017-Sep-17 18:30N 37°57' E 023°37'0 0.0
2017-Sep-17 18:00N 37°57' E 023°37'0 0.0
2017-Sep-17 17:30N 37°57' E 023°37'0 0.0
2017-Sep-17 17:00N 37°57' E 023°37'0 0.0
2017-Sep-17 16:30N 37°57' E 023°37'1 2.7
2017-Sep-17 16:00N 37°57' E 023°35'1 1.4
2017-Sep-17 15:30N 37°57' E 023°36'1 1.3
2017-Sep-17 15:00N 37°57' E 023°37'0 0.0
2017-Sep-17 14:30N 37°57' E 023°37'0 0.0
2017-Sep-17 14:00N 37°57' E 023°37'0 0.0
2017-Sep-17 13:30N 37°57' E 023°37'0 0.1
2017-Sep-17 13:00N 37°57' E 023°37'1 1.6
2017-Sep-17 12:30N 37°57' E 023°36'1 1.6
2017-Sep-17 12:00N 37°57' E 023°37'0 0.0
2017-Sep-17 11:30N 37°57' E 023°37'0 0.0
2017-Sep-17 11:00N 37°57' E 023°37'0 0.0
2017-Sep-17 10:30N 37°57' E 023°37'0 0.0
2017-Sep-17 10:00N 37°57' E 023°37'0 0.0
2017-Sep-17 09:30N 37°57' E 023°37'0 0.0
2017-Sep-17 09:00N 37°57' E 023°37'0 0.0
2017-Sep-17 08:30N 37°57' E 023°37'0 0.0
2017-Sep-17 08:00N 37°57' E 023°37'0 0.0
2017-Sep-17 07:30N 37°57' E 023°37'0 0.0
2017-Sep-17 07:00N 37°57' E 023°37'0 0.0
2017-Sep-17 06:30N 37°57' E 023°37'0 0.0
2017-Sep-17 06:00N 37°57' E 023°37'0 0.0
2017-Sep-17 05:30N 37°57' E 023°37'1 2.9
2017-Sep-17 05:00N 37°57' E 023°35'0 0.9
2017-Sep-17 04:31N 37°57' E 023°35'1 1.7
2017-Sep-17 04:00N 37°57' E 023°36'1 1.5
2017-Sep-17 03:30N 37°57' E 023°37'0 0.2
2017-Sep-17 03:00N 37°57' E 023°37'0 0.0
2017-Sep-17 02:30N 37°57' E 023°37'0 0.0
2017-Sep-17 02:00N 37°57' E 023°37'0 0.0
2017-Sep-17 01:30N 37°57' E 023°37'0 0.0
2017-Sep-17 01:00N 37°57' E 023°37'0 0.0
2017-Sep-17 00:30N 37°57' E 023°37'0 0.1
2017-Sep-17 00:00N 37°57' E 023°36'1 2.6
2017-Sep-16 23:30N 37°57' E 023°35'0 0.4
2017-Sep-16 23:00N 37°57' E 023°35'0 0.0
2017-Sep-16 22:30N 37°57' E 023°35'0 0.0
2017-Sep-16 22:00N 37°57' E 023°35'0 0.0
2017-Sep-16 21:30N 37°57' E 023°35'0 0.4
2017-Sep-16 21:00N 37°57' E 023°35'2 3.5
2017-Sep-16 20:30N 37°56' E 023°35'1 3.0
2017-Sep-16 20:00N 37°57' E 023°35'0 0.9
2017-Sep-16 19:30N 37°57' E 023°36'1 1.3
2017-Sep-16 19:00N 37°57' E 023°37'0 0.9
2017-Sep-16 18:30N 37°57' E 023°36'0 1.0
2017-Sep-16 18:00N 37°57' E 023°37'0 0.0
2017-Sep-16 17:30N 37°57' E 023°37'0 0.0
2017-Sep-16 17:00N 37°57' E 023°37'0 0.0
2017-Sep-16 16:30N 37°57' E 023°37'0 0.0
2017-Sep-16 16:00N 37°57' E 023°37'  

Dump ship's entire track history